首页
METAR-TAF:

METAR-TAF

机场 :

新德里, 印度

英迪拉·甘地国际机场

纬度: 28-34N, 经度: 077-07E, 海拔: 220米

当前天气观测

该预报发布于24分钟前的03:00 UTC
风速4节,风向西转西南
温度 8°C
湿度 93%
气压 1016 hPa
能見度: 0200

METAR: VIDP 200300Z 24004KT 0200 R28/0800 R29/0900 FG VV/// 08/07 Q1016 BECMG 0350 FG

时间: 08:54 (03:24 UTC)

预报

该预报发布于4小时和24分钟前的23:00 UTC
预报有效从20日的 00点(UTC)到 21日的 06点(UTC)
风速5节,风向西转西南
能見度: 0050
成为
从 20日的 04点(UTC)到 20日的 06点(UTC)
风速6节,风向西
能見度: 0800
少量云层高于10000英尺
浅雾
成为
从 20日的 08点(UTC)到 20日的 09点(UTC)
风速8节,风向西转西北
能見度: 2000
成为
从 20日的 14点(UTC)到 20日的 16点(UTC)
风速5节,风向西
能見度: 1500
霾, 烟
成为
从 20日的 21点(UTC)到 20日的 22点(UTC)
风速节,风向
能見度: 0100
成为
从 21日的 05点(UTC)到 21日的 06点(UTC)
风速6节,风向西转西北
能見度: 0600
浅雾

TAF: VIDP 192300Z 2000/2106 24005KT 0050 FG VV/// BECMG 2004/2006 27006KT 0800 MIFG FEW100 BECMG 2008/2009 29008KT 2000 HZ NSC BECMG 2014/2016 27005KT 1500 HZ FU BECMG 2021/2022 00000KT 0100 FG VV/// BECMG 2105/2106 29006KT 0600 MIFG NSC

超过4000个机场的气象观测和天气预报(METAR&TAF报告)。

可查询的气象台以黄色和红色小点在地图上表示。

将鼠标移到小点上方,可查看气象台名称。

然后点击查看天气观测和预报。

如需切换地图:点击带黑十字的绿色按钮放大地图;点击带横线的绿色按钮缩小地图;或者点击绿色箭头查看邻近地区的地图。


METAR-TAF: